Time;durP1;ratioP1;P1;durP2;ratioP2;P2;SDS_P1;SDS_P2;PMS_P1;PMS_P2;Temp;Humidity;BMP_temperature;BMP_pressure;BME280_temperature;BME280_humidity;BME280_pressure;Samples;Min_cycle;Max_cycle;Signal;HPM_P1;HPM_P2
2021/06/20 00:00:16;;;;;;;12.80;7.83;;;;;;;22.90;54.87;99977.27;2091296;84;27425;-61
2021/06/20 00:03:20;;;;;;;8.03;7.22;;;;;;;22.87;55.04;99980.84;2091069;85;27468;-61
2021/06/20 00:06:34;;;;;;;8.63;7.20;;;;;;;22.83;55.04;99980.81;2091153;85;31720;-67
2021/06/20 00:09:36;;;;;;;9.90;8.37;;;;;;;22.79;55.17;99980.79;2091565;85;33105;-60
2021/06/20 00:12:41;;;;;;;12.98;8.30;;;;;;;22.73;55.41;99980.94;2091384;85;29391;-59
2021/06/20 00:15:45;;;;;;;10.15;8.98;;;;;;;22.68;55.63;99984.17;2064971;85;27506;-59
2021/06/20 00:18:47;;;;;;;12.07;10.45;;;;;;;22.64;55.56;99990.12;2091493;85;28748;-66
2021/06/20 00:21:49;;;;;;;12.53;9.48;;;;;;;22.57;55.78;99992.13;2052798;86;31091;-60
2021/06/20 00:24:52;;;;;;;10.30;8.85;;;;;;;22.53;55.68;99989.89;2091250;85;33110;-64
2021/06/20 00:27:55;;;;;;;17.23;9.75;;;;;;;22.47;55.94;99984.57;2091050;85;29504;-64
2021/06/20 00:30:58;;;;;;;12.80;9.25;;;;;;;22.43;55.95;99985.91;2091441;85;27501;-61
2021/06/20 00:34:00;;;;;;;13.62;9.95;;;;;;;22.36;56.42;99980.70;2091365;85;28685;-61
2021/06/20 00:37:04;;;;;;;9.73;8.70;;;;;;;22.29;56.30;99979.13;2091342;85;31134;-62
2021/06/20 00:40:08;;;;;;;9.98;8.45;;;;;;;22.22;56.55;99971.25;2091129;85;33241;-65
2021/06/20 00:43:10;;;;;;;15.18;8.00;;;;;;;22.15;56.41;99974.61;2091471;85;29388;-62
2021/06/20 00:46:16;;;;;;;10.75;8.00;;;;;;;22.09;56.60;99977.12;2091411;85;27458;-60
2021/06/20 00:49:19;;;;;;;9.43;8.33;;;;;;;22.04;56.84;99974.00;2091362;84;28717;-66
2021/06/20 00:52:21;;;;;;;19.35;10.60;;;;;;;21.98;56.98;99971.41;2065182;85;32442;-66
2021/06/20 00:55:32;;;;;;;16.32;10.80;;;;;;;21.90;57.28;99967.27;2052774;86;33102;-66
2021/06/20 00:58:34;;;;;;;11.60;9.28;;;;;;;21.85;57.55;99965.86;2052948;86;29432;-66
2021/06/20 01:01:36;;;;;;;13.60;10.40;;;;;;;21.80;57.98;99970.08;2091423;85;27489;-66
2021/06/20 01:04:41;;;;;;;11.00;9.83;;;;;;;21.75;58.05;99964.23;2052775;86;28756;-66
2021/06/20 01:07:44;;;;;;;14.43;10.88;;;;;;;21.69;58.09;99958.39;2091306;85;31089;-67
2021/06/20 01:10:46;;;;;;;12.30;9.88;;;;;;;21.67;58.33;99962.30;2091290;85;33080;-61
2021/06/20 01:13:49;;;;;;;13.93;10.70;;;;;;;;;;2091338;84;29385;-67
2021/06/20 01:16:53;;;;;;;14.28;10.32;;;;;;;21.56;58.80;99948.36;2091423;85;27446;-61
2021/06/20 01:19:55;;;;;;;13.32;10.40;;;;;;;21.52;58.70;99943.73;2091428;84;28733;-65
2021/06/20 01:22:58;;;;;;;12.30;10.82;;;;;;;21.49;58.84;99941.84;2091293;85;31182;-62
2021/06/20 01:26:01;;;;;;;11.60;10.10;;;;;;;21.43;59.20;99937.00;2052712;86;32899;-66
2021/06/20 01:29:05;;;;;;;13.80;10.13;;;;;;;21.37;59.30;99936.60;2090987;85;29519;-60
2021/06/20 01:32:07;;;;;;;11.80;9.90;;;;;;;21.32;59.61;99934.88;2047489;86;27465;-63
2021/06/20 01:35:12;;;;;;;10.55;9.45;;;;;;;21.27;59.67;99933.11;2052762;85;28711;-65
2021/06/20 01:38:13;;;;;;;;;;;;;;;21.24;59.82;99930.69;2093808;85;31721;-66
2021/06/20 01:41:16;;;;;;;13.58;10.53;;;;;;;21.22;59.94;99922.69;2091156;85;33035;-64
2021/06/20 01:44:18;;;;;;;10.82;9.75;;;;;;;21.22;60.02;99925.89;2091295;85;29458;-61
2021/06/20 01:47:22;;;;;;;12.60;11.10;;;;;;;21.23;60.02;99924.40;2088888;85;27538;-65
2021/06/20 01:50:24;;;;;;;12.82;9.78;;;;;;;21.21;60.07;99927.78;2052888;86;28337;-65
2021/06/20 01:53:26;;;;;;;14.78;10.40;;;;;;;21.20;60.37;99923.34;2088908;85;31087;-61
2021/06/20 01:56:29;;;;;;;12.43;10.63;;;;;;;21.15;60.52;99917.48;2087862;85;33114;-65
2021/06/20 01:59:34;;;;;;;17.25;9.63;;;;;;;21.11;60.38;99918.80;2087891;85;29399;-62
2021/06/20 02:02:37;;;;;;;12.75;10.72;;;;;;;21.08;60.46;99914.53;2087996;85;27499;-65
2021/06/20 02:05:43;;;;;;;12.75;10.43;;;;;;;21.05;60.69;99914.83;2087878;85;28749;-61
2021/06/20 02:08:45;;;;;;;13.05;11.43;;;;;;;21.02;60.63;99913.77;2087907;85;31091;-64
2021/06/20 02:11:47;;;;;;;11.38;10.18;;;;;;;21.01;60.72;99909.37;2087857;85;33014;-65
2021/06/20 02:14:50;;;;;;;13.40;11.95;;;;;;;20.98;61.01;99906.06;2087899;85;29401;-65
2021/06/20 02:17:55;;;;;;;28.60;10.45;;;;;;;20.91;60.92;99911.28;2087995;85;27664;-60
2021/06/20 02:20:58;;;;;;;12.95;10.35;;;;;;;20.87;61.19;99904.41;2061628;86;28749;-59
2021/06/20 02:24:00;;;;;;;13.18;10.50;;;;;;;20.80;61.30;99896.00;2087847;85;31006;-64
2021/06/20 02:27:02;;;;;;;13.20;10.30;;;;;;;20.77;61.63;99900.39;2061265;86;33198;-58
2021/06/20 02:30:07;;;;;;;13.95;9.78;;;;;;;20.73;61.72;99898.45;2087878;85;29402;-58
2021/06/20 02:33:09;;;;;;;12.93;10.30;;;;;;;20.72;61.90;99902.70;2087972;85;27446;-59
2021/06/20 02:36:11;;;;;;;13.62;10.25;;;;;;;20.70;62.12;99907.44;2087865;85;28772;-64
2021/06/20 02:39:14;;;;;;;14.75;10.53;;;;;;;20.66;62.00;99900.09;2087848;85;31124;-64
2021/06/20 02:42:16;;;;;;;12.82;10.68;;;;;;;20.67;62.44;99909.09;2061583;86;32949;-59
2021/06/20 02:45:21;;;;;;;12.10;10.95;;;;;;;20.65;62.09;99903.81;2095459;84;29450;-60
2021/06/20 02:48:24;;;;;;;14.63;10.00;;;;;;;20.65;62.41;99903.30;2087976;85;27498;-58
2021/06/20 02:51:26;;;;;;;13.75;10.98;;;;;;;20.65;62.34;99903.81;2087881;85;28754;-62
2021/06/20 02:54:29;;;;;;;11.60;10.40;;;;;;;20.64;62.40;99900.22;2059082;85;31087;-65
2021/06/20 02:57:32;;;;;;;15.70;10.97;;;;;;;20.64;62.51;99898.02;2047297;86;33017;-62
2021/06/20 03:00:34;;;;;;;11.65;10.28;;;;;;;20.64;62.52;99893.94;2091229;85;29393;-58
2021/06/20 03:03:39;;;;;;;12.37;10.48;;;;;;;20.63;62.48;99891.70;2047182;86;27436;-58
2021/06/20 03:06:42;;;;;;;15.63;10.78;;;;;;;20.64;62.62;99889.33;2091209;85;28731;-62
2021/06/20 03:09:44;;;;;;;13.30;10.40;;;;;;;20.68;62.59;99884.95;2091176;85;31091;-63
2021/06/20 03:12:46;;;;;;;11.65;10.35;;;;;;;20.68;62.72;99884.46;2091198;84;33030;-66
2021/06/20 03:15:50;;;;;;;13.60;11.18;;;;;;;20.71;62.73;99879.20;2091234;84;29400;-66
2021/06/20 03:18:52;;;;;;;14.65;10.93;;;;;;;20.73;62.79;99880.76;2091307;85;27511;-64
2021/06/20 03:21:59;;;;;;;12.23;10.32;;;;;;;20.76;62.71;99874.20;2091203;85;28726;-65
2021/06/20 03:24:58;;;;;;;15.33;10.90;;;;;;;20.82;62.46;99865.92;2046156;87;31227;-64
2021/06/20 03:28:00;;;;;;;12.70;10.88;;;;;;;20.87;62.58;99859.00;2091171;85;33009;-61
2021/06/20 03:31:02;;;;;;;14.23;10.40;;;;;;;20.92;62.48;99862.62;2087518;85;29366;-59
2021/06/20 03:34:05;;;;;;;12.25;11.03;;;;;;;20.95;62.57;99862.31;2052776;86;27466;-60
2021/06/20 03:37:07;;;;;;;17.70;10.28;;;;;;;21.00;62.48;99854.55;2052695;86;28721;-60
2021/06/20 03:40:11;;;;;;;11.68;10.48;;;;;;;21.06;62.54;99851.70;2047067;86;31124;-65
2021/06/20 03:43:13;;;;;;;16.45;10.60;;;;;;;21.10;62.47;99844.91;2091282;85;33047;-60
2021/06/20 03:46:18;;;;;;;13.78;10.43;;;;;;;21.14;62.30;99849.56;2087547;85;29211;-60
2021/06/20 03:49:19;;;;;;;11.88;10.65;;;;;;;21.19;62.23;99854.88;2091478;85;27461;-60
2021/06/20 03:52:22;;;;;;;13.53;10.78;;;;;;;21.21;62.18;99866.48;2091410;84;29302;-60
2021/06/20 03:55:24;;;;;;;14.73;9.90;;;;;;;21.31;62.18;99873.70;2091059;85;31158;-61
2021/06/20 03:58:27;;;;;;;12.63;11.05;;;;;;;21.35;62.12;99878.67;2091378;84;33247;-60
2021/06/20 04:01:29;;;;;;;12.53;10.15;;;;;;;21.39;62.01;99881.97;2047252;87;29449;-59
2021/06/20 04:04:31;;;;;;;12.98;11.15;;;;;;;21.46;61.88;99886.28;2091478;85;27431;-60
2021/06/20 04:07:34;;;;;;;15.03;10.82;;;;;;;21.56;61.85;99884.30;2091358;85;28759;-60
2021/06/20 04:10:36;;;;;;;13.78;10.32;;;;;;;21.64;61.72;99876.73;2091367;85;31008;-60
2021/06/20 04:13:38;;;;;;;13.00;10.38;;;;;;;21.70;61.69;99884.28;2091349;85;33081;-60
2021/06/20 04:16:40;;;;;;;13.05;9.75;;;;;;;21.76;61.61;99887.72;2091382;85;29402;-67
2021/06/20 04:19:42;;;;;;;17.87;10.38;;;;;;;21.85;61.56;99896.81;2091468;85;27520;-68
2021/06/20 04:22:45;;;;;;;12.98;10.63;;;;;;;21.95;61.46;99904.89;2091069;85;28823;-64
2021/06/20 04:25:47;;;;;;;15.25;10.18;;;;;;;22.05;61.35;99911.61;2047191;86;31089;-61
2021/06/20 04:28:49;;;;;;;11.53;10.18;;;;;;;22.14;61.27;99923.78;2091327;85;33043;-67
2021/06/20 04:31:52;;;;;;;14.68;10.53;;;;;;;22.25;61.18;99924.55;2091364;84;29364;-64
2021/06/20 04:34:54;;;;;;;16.32;10.48;;;;;;;22.36;61.15;99916.06;2091438;85;27421;-66
2021/06/20 04:37:57;;;;;;;16.95;11.15;;;;;;;22.50;60.90;99921.47;2091361;84;28731;-68
2021/06/20 04:41:04;;;;;;;12.50;11.08;;;;;;;22.70;60.72;99932.11;2052803;86;31252;-66
2021/06/20 04:44:42;;;;;;;11.45;10.20;;;;;;;22.88;60.51;99935.59;2047086;87;33066;-66
2021/06/20 04:47:14;;;;;;;11.97;10.15;;;;;;;23.05;60.46;99933.78;2087272;85;29478;-66
2021/06/20 04:50:17;;;;;;;12.50;9.85;;;;;;;23.63;60.49;99931.67;2091209;85;27474;-66
2021/06/20 04:53:19;;;;;;;9.75;8.70;;;;;;;24.57;59.64;99925.70;2094530;84;28777;-65
2021/06/20 04:56:21;;;;;;;9.90;8.90;;;;;;;25.55;57.93;99915.78;2106434;84;31161;-66
2021/06/20 04:59:23;;;;;;;10.45;9.35;;;;;;;26.50;57.50;99922.56;2106427;84;33049;-67
2021/06/20 05:02:25;;;;;;;10.68;9.55;;;;;;;27.59;55.61;99914.03;2106777;84;29957;-66
2021/06/20 05:05:28;;;;;;;9.73;8.75;;;;;;;28.33;54.33;99915.16;2106837;84;27541;-66
2021/06/20 05:08:30;;;;;;;12.53;8.85;;;;;;;29.15;52.76;99920.83;2106775;84;28747;-67
2021/06/20 05:11:32;;;;;;;11.48;9.15;;;;;;;29.91;51.54;99915.22;2106743;84;31130;-66
2021/06/20 05:14:38;;;;;;;8.20;7.55;;;;;;;30.79;50.57;99928.36;2091281;84;33008;-64
2021/06/20 05:17:40;;;;;;;9.25;7.78;;;;;;;31.68;49.10;99934.90;2106765;84;29393;-67
2021/06/20 05:20:43;;;;;;;10.18;7.97;;;;;;;32.56;47.31;99932.73;2106728;84;27473;-67
2021/06/20 05:23:45;;;;;;;8.50;7.78;;;;;;;33.10;46.04;99933.50;2106748;84;28727;-66
2021/06/20 05:26:47;;;;;;;8.55;7.75;;;;;;;33.51;44.16;99922.68;2065910;85;31082;-64
2021/06/20 05:29:50;;;;;;;13.58;8.35;;;;;;;33.93;42.69;99923.50;2106710;84;33052;-62
2021/06/20 05:32:53;;;;;;;9.38;8.03;;;;;;;34.32;41.90;99923.01;2106739;84;29409;-67
2021/06/20 05:35:55;;;;;;;;;;;;;;;34.75;40.87;99920.91;2109067;84;27518;-67
2021/06/20 05:38:57;;;;;;;12.55;7.53;;;;;;;34.91;39.39;99917.05;2033356;86;28589;-66
2021/06/20 05:41:59;;;;;;;10.45;7.92;;;;;;;34.98;38.46;99917.23;2091283;85;31140;-66
2021/06/20 05:45:03;;;;;;;8.85;7.72;;;;;;;35.25;38.14;99929.71;2106715;84;33040;-63
2021/06/20 05:48:05;;;;;;;9.88;8.03;;;;;;;35.69;38.10;99928.57;2106841;84;29384;-63
2021/06/20 05:51:07;;;;;;;10.27;7.97;;;;;;;36.22;36.39;99922.74;2091616;85;27421;-65
2021/06/20 05:54:10;;;;;;;12.53;7.90;;;;;;;36.41;35.51;99914.91;2105920;84;28563;-69
2021/06/20 05:57:12;;;;;;;12.68;8.25;;;;;;;36.56;35.89;99924.65;2106713;84;31155;-74
2021/06/20 06:00:15;;;;;;;11.95;7.80;;;;;;;36.91;34.62;99930.36;2106795;83;33000;-78
2021/06/20 06:03:18;;;;;;;14.98;7.87;;;;;;;37.07;33.49;99926.67;2091390;85;29312;-73
2021/06/20 06:06:20;;;;;;;9.00;8.10;;;;;;;37.22;33.56;99934.39;2078895;84;27546;-62
2021/06/20 06:09:21;;;;;;;8.83;7.47;;;;;;;37.56;33.48;99930.58;2091272;85;28648;-62
2021/06/20 06:12:24;;;;;;;9.28;7.72;;;;;;;37.86;32.80;99927.75;2106655;84;31080;-62
2021/06/20 06:15:30;;;;;;;10.75;7.97;;;;;;;38.00;32.09;99923.41;2091233;85;33081;-64
2021/06/20 06:18:32;;;;;;;8.33;7.50;;;;;;;38.29;31.62;99924.42;2106748;84;29393;-62
2021/06/20 06:21:34;;;;;;;9.08;7.47;;;;;;;38.67;31.02;99926.33;2091347;85;27489;-64
2021/06/20 06:24:36;;;;;;;13.95;8.50;;;;;;;38.77;30.65;99921.33;2106683;84;28727;-62
2021/06/20 06:27:40;;;;;;;11.03;7.60;;;;;;;38.89;30.41;99919.16;2106770;84;31067;-62
2021/06/20 06:30:42;;;;;;;8.80;7.92;;;;;;;39.10;30.36;99917.83;2090906;85;33144;-62
2021/06/20 06:33:44;;;;;;;11.75;7.37;;;;;;;39.44;29.83;99927.99;2106677;84;29365;-62
2021/06/20 06:36:46;;;;;;;13.68;8.55;;;;;;;39.76;29.28;99927.48;2106904;84;27484;-62
2021/06/20 06:39:49;;;;;;;10.63;7.85;;;;;;;39.99;29.04;99923.80;2091219;85;28771;-62
2021/06/20 06:42:51;;;;;;;14.80;8.18;;;;;;;40.23;28.54;99923.52;2106786;84;31079;-63
2021/06/20 06:45:53;;;;;;;11.40;8.05;;;;;;;40.48;28.04;99920.92;2091422;85;33079;-62
2021/06/20 06:48:55;;;;;;;8.60;7.80;;;;;;;40.33;28.07;99915.64;2106689;84;29367;-63
2021/06/20 06:51:57;;;;;;;9.30;8.10;;;;;;;40.47;27.89;99903.80;2106780;84;27500;-61
2021/06/20 06:55:00;;;;;;;8.48;7.58;;;;;;;40.61;27.33;99896.44;2090941;85;28746;-62
2021/06/20 07:01:10;;;;;;;8.18;7.35;;;;;;;40.90;27.07;99878.90;1932734;92;28511;-63
2021/06/20 07:04:12;;;;;;;9.38;7.67;;;;;;;40.83;26.70;99868.56;1951896;90;29618;-63
2021/06/20 07:07:14;;;;;;;9.50;8.68;;;;;;;41.00;26.97;99879.41;1952499;91;27517;-63
2021/06/20 07:10:16;;;;;;;9.28;7.62;;;;;;;41.25;26.59;99874.20;1954502;91;28730;-68
2021/06/20 07:13:18;;;;;;;9.00;8.10;;;;;;;41.42;26.49;99872.95;1951045;90;31186;-64
2021/06/20 07:16:19;;;;;;;9.75;8.83;;;;;;;41.44;26.06;99876.31;1953785;91;33215;-63
2021/06/20 07:19:21;;;;;;;9.35;8.33;;;;;;;41.38;26.10;99861.46;1944717;91;29409;-62
2021/06/20 07:22:23;;;;;;;10.30;8.35;;;;;;;41.14;25.80;99858.55;1953552;91;27565;-64
2021/06/20 07:25:24;;;;;;;8.40;7.60;;;;;;;40.96;25.67;99855.27;1951176;90;28623;-62
2021/06/20 07:28:26;;;;;;;10.38;8.35;;;;;;;41.06;25.80;99850.15;1953153;91;31993;-62
2021/06/20 07:31:28;;;;;;;13.70;8.78;;;;;;;41.00;25.59;99853.56;1955392;89;33203;-61
2021/06/20 07:34:30;;;;;;;10.60;7.08;;;;;;;40.65;25.40;99853.20;1952010;91;29447;-63
2021/06/20 07:37:32;;;;;;;9.35;8.05;;;;;;;40.55;25.48;99863.33;1952615;91;27528;-63
2021/06/20 07:40:34;;;;;;;9.40;8.50;;;;;;;40.65;26.22;99854.05;1952935;91;28689;-62
2021/06/20 07:43:36;;;;;;;9.20;8.25;;;;;;;40.82;25.92;99852.26;1954321;90;31083;-63
2021/06/20 07:46:38;;;;;;;10.53;8.40;;;;;;;41.03;25.74;99849.33;1953880;90;33025;-62
2021/06/20 07:49:43;;;;;;;12.20;8.43;;;;;;;41.36;26.23;99852.48;1954477;90;30288;-61
2021/06/20 07:52:44;;;;;;;10.23;8.08;;;;;;;41.47;25.69;99840.58;1953386;91;27635;-62
2021/06/20 07:55:46;;;;;;;9.63;8.60;;;;;;;41.75;25.50;99838.94;1955686;91;28743;-62
2021/06/20 07:58:48;;;;;;;9.63;8.63;;;;;;;41.74;24.76;99829.38;1940325;89;31096;-60
2021/06/20 08:01:49;;;;;;;12.37;8.40;;;;;;;41.52;24.72;99832.14;1983356;89;34201;-63
2021/06/20 08:04:51;;;;;;;9.25;8.10;;;;;;;41.37;25.17;99828.03;1933890;90;29383;-62
2021/06/20 08:07:53;;;;;;;13.48;9.48;;;;;;;41.65;25.63;99826.37;1974131;89;27644;-64
2021/06/20 08:10:56;;;;;;;10.23;8.30;;;;;;;41.91;24.74;99833.15;1988191;89;28898;-63
2021/06/20 08:13:58;;;;;;;10.78;8.03;;;;;;;41.84;25.04;99835.47;1929561;91;31094;-63
2021/06/20 08:17:00;;;;;;;10.25;8.85;;;;;;;41.88;24.63;99847.23;1926856;90;33014;-62
2021/06/20 08:20:06;;;;;;;10.90;7.67;;;;;;;41.76;24.35;99849.06;1950881;89;29402;-61
2021/06/20 08:23:07;;;;;;;10.55;9.48;;;;;;;41.69;24.57;99846.33;1952355;90;27795;-62
2021/06/20 08:26:11;;;;;;;10.70;8.48;;;;;;;41.48;24.32;99844.22;1961378;89;27762;-62
2021/06/20 08:29:15;;;;;;;12.07;8.70;;;;;;;41.37;25.08;99842.09;1936711;90;31024;-62
2021/06/20 08:32:18;;;;;;;8.25;7.55;;;;;;;41.30;24.56;99847.47;1969267;89;33356;-61
2021/06/20 08:35:19;;;;;;;7.97;7.13;;;;;;;41.22;24.80;99835.43;1937678;90;29391;-62
2021/06/20 08:38:21;;;;;;;9.38;7.15;;;;;;;41.05;24.38;99825.98;1968481;89;27628;-62
2021/06/20 08:41:23;;;;;;;8.58;7.17;;;;;;;40.92;24.52;99828.88;1989508;89;28850;-62
2021/06/20 08:44:31;;;;;;;8.88;7.97;;;;;;;40.81;24.50;99825.30;1936412;90;31082;-61
2021/06/20 08:47:34;;;;;;;8.55;7.75;;;;;;;40.63;24.61;99835.25;1947530;91;33049;-62
2021/06/20 08:50:36;;;;;;;12.18;8.70;;;;;;;40.44;24.82;99835.59;1993468;89;29317;-61
2021/06/20 08:53:38;;;;;;;6.62;5.10;;;;;;;40.46;25.13;99827.72;1987759;89;27695;-62
2021/06/20 08:56:40;;;;;;;12.07;7.87;;;;;;;40.36;25.10;99823.84;1994113;89;28177;-59
2021/06/20 08:59:42;;;;;;;9.83;8.93;;;;;;;39.95;25.41;99819.73;1986597;87;31089;-58
2021/06/20 09:02:46;;;;;;;10.20;9.08;;;;;;;39.79;25.79;99816.97;1955210;90;33053;-63
2021/06/20 09:06:02;;;;;;;10.25;7.72;;;;;;;39.82;26.36;99813.33;1941955;89;30208;-61
2021/06/20 09:09:08;;;;;;;10.72;8.38;;;;;;;39.94;26.54;99823.67;1951845;90;27574;-60
2021/06/20 09:12:13;;;;;;;9.98;7.87;;;;;;;40.11;26.39;99820.55;1932713;90;28706;-60
2021/06/20 09:15:17;;;;;;;12.00;8.90;;;;;;;40.25;26.29;99827.25;1931560;90;30993;-61
2021/06/20 09:18:18;;;;;;;8.80;7.40;;;;;;;40.36;25.75;99828.61;1927169;90;33125;-59
2021/06/20 09:21:26;;;;;;;8.65;7.30;;;;;;;40.31;25.83;99818.80;1931550;92;29419;-60
2021/06/20 09:24:28;;;;;;;8.13;6.92;;;;;;;40.21;25.80;99821.93;1952053;90;27537;-60
2021/06/20 09:27:30;;;;;;;7.05;6.35;;;;;;;40.19;25.84;99813.53;1938388;90;28751;-59
2021/06/20 09:30:36;;;;;;;8.75;7.60;;;;;;;40.14;25.70;99809.30;1943241;90;28104;-59
2021/06/20 09:33:39;;;;;;;8.35;7.33;;;;;;;39.91;25.54;99811.06;1929945;90;47534;-60
2021/06/20 09:36:44;;;;;;;7.42;6.72;;;;;;;39.55;25.70;99811.67;1943293;90;29665;-60
2021/06/20 09:39:47;;;;;;;10.75;7.00;;;;;;;39.31;25.46;99803.25;1931971;92;27507;-59
2021/06/20 09:42:50;;;;;;;8.98;6.37;;;;;;;38.96;25.84;99802.66;1933819;90;28715;-59
2021/06/20 09:45:55;;;;;;;;;;;;;;;38.77;25.86;99807.92;1948476;90;31150;-62
2021/06/20 09:48:57;;;;;;;7.03;6.42;;;;;;;38.39;26.08;99798.31;1964870;89;32923;-59
2021/06/20 09:51:59;;;;;;;7.50;6.90;;;;;;;38.04;26.06;99804.83;1998588;87;29491;-63
2021/06/20 09:55:12;;;;;;;6.90;6.30;;;;;;;37.80;26.31;99793.20;1995411;88;27613;-61
2021/06/20 09:58:19;;;;;;;6.78;6.03;;;;;;;37.60;26.98;99789.73;1995143;87;28191;-60
2021/06/20 10:01:22;;;;;;;8.08;5.75;;;;;;;37.30;26.73;99786.40;1998632;87;32502;-59
2021/06/20 10:04:23;;;;;;;8.48;5.70;;;;;;;37.09;26.98;99786.22;1976744;89;33277;-60
2021/06/20 10:07:27;;;;;;;7.05;6.17;;;;;;;36.96;26.93;99785.84;1955419;90;29449;-60
2021/06/20 10:10:30;;;;;;;10.53;6.33;;;;;;;36.68;26.81;99783.02;1983716;89;27567;-60
2021/06/20 10:13:33;;;;;;;6.83;5.33;;;;;;;36.51;27.51;99782.27;1955378;90;29551;-60
2021/06/20 10:16:38;;;;;;;6.28;5.67;;;;;;;36.32;26.97;99791.77;1987273;89;31018;-60
2021/06/20 10:19:50;;;;;;;6.30;5.67;;;;;;;36.14;27.01;99790.73;1947175;90;29319;-61
2021/06/20 10:22:52;;;;;;;8.05;5.97;;;;;;;35.96;27.38;99777.39;1986107;89;29419;-59
2021/06/20 10:26:05;;;;;;;7.60;6.28;;;;;;;35.74;27.73;99777.34;1939127;90;27763;-60
2021/06/20 10:29:29;;;;;;;6.70;5.97;;;;;;;35.66;28.59;99771.63;1973747;89;33077;-58
2021/06/20 10:32:38;;;;;;;6.70;5.95;;;;;;;35.55;28.18;99772.05;1971141;89;31705;-58
2021/06/20 10:35:43;;;;;;;6.90;6.22;;;;;;;35.25;28.34;99770.97;1936427;90;33012;-59
2021/06/20 10:38:46;;;;;;;6.20;5.67;;;;;;;35.07;28.71;99760.38;1959972;90;29322;-59
2021/06/20 10:41:47;;;;;;;10.08;5.42;;;;;;;34.98;28.88;99771.64;1961330;90;27762;-60
2021/06/20 10:44:52;;;;;;;9.13;6.10;;;;;;;34.79;29.14;99771.84;1980385;89;28736;-59
2021/06/20 10:47:54;;;;;;;8.23;7.28;;;;;;;34.64;29.45;99770.99;1961689;89;31259;-58
2021/06/20 10:50:57;;;;;;;8.13;6.62;;;;;;;34.56;29.91;99771.94;1943911;91;33030;-60
2021/06/20 10:54:02;;;;;;;9.23;5.67;;;;;;;34.57;30.39;99760.58;1991820;89;30157;-60
2021/06/20 10:57:05;;;;;;;8.78;5.80;;;;;;;34.59;30.15;99769.49;1983665;89;27501;-61
2021/06/20 11:00:08;;;;;;;10.40;6.58;;;;;;;34.60;30.37;99766.18;1980286;89;29711;-60
2021/06/20 11:03:30;;;;;;;6.72;5.37;;;;;;;34.64;30.48;99764.03;1974435;89;31161;-60
2021/06/20 11:06:30;;;;;;;10.10;6.80;;;;;;;34.62;30.41;99761.22;1980044;89;33894;-59
2021/06/20 11:09:38;;;;;;;8.18;6.42;;;;;;;34.65;30.56;99756.55;1932114;90;29469;-58
2021/06/20 11:12:39;;;;;;;6.60;5.15;;;;;;;34.61;30.30;99747.84;1955829;90;27836;-58
2021/06/20 11:15:41;;;;;;;6.55;5.95;;;;;;;34.54;29.75;99741.03;2026565;87;28649;-59
2021/06/20 11:18:45;;;;;;;13.80;5.95;;;;;;;34.43;30.12;99742.47;1985729;88;31217;-58
2021/06/20 11:21:58;;;;;;;5.00;4.60;;;;;;;34.42;30.19;99735.25;1970768;89;32472;-59
2021/06/20 11:24:59;;;;;;;5.75;5.25;;;;;;;34.40;29.34;99741.02;1973148;89;29543;-58
2021/06/20 11:28:01;;;;;;;6.75;6.15;;;;;;;34.29;28.87;99733.01;1972517;89;27572;-59
2021/06/20 11:31:10;;;;;;;5.58;5.08;;;;;;;34.16;28.85;99729.14;1944209;90;28841;-58
2021/06/20 11:34:11;;;;;;;6.10;5.40;;;;;;;34.13;28.92;99747.69;1978268;89;31906;-59
2021/06/20 11:37:22;;;;;;;5.92;5.37;;;;;;;34.05;29.01;99735.88;2022745;88;32938;-59
2021/06/20 11:40:27;;;;;;;9.35;5.78;;;;;;;34.06;29.26;99732.02;2021421;87;29529;-59
2021/06/20 11:43:29;;;;;;;5.70;5.20;;;;;;;34.06;29.10;99728.38;2004166;87;27552;-58
2021/06/20 11:46:34;;;;;;;6.33;5.53;;;;;;;34.08;29.18;99726.20;2011634;87;29702;-60
2021/06/20 11:49:36;;;;;;;8.20;5.15;;;;;;;34.07;28.93;99718.42;2017376;87;31235;-60
2021/06/20 11:52:39;;;;;;;8.25;5.47;;;;;;;33.97;28.68;99714.02;2002892;88;33114;-59
2021/06/20 11:55:47;;;;;;;6.33;5.37;;;;;;;33.96;28.87;99712.89;2014561;87;29312;-59
2021/06/20 11:58:48;;;;;;;6.30;5.70;;;;;;;34.04;29.01;99711.09;2018635;87;27652;-58
2021/06/20 12:01:50;;;;;;;7.25;5.25;;;;;;;34.09;28.85;99705.66;1984211;89;28657;-59
2021/06/20 12:04:52;;;;;;;5.58;5.12;;;;;;;34.11;28.65;99704.86;1985014;89;31106;-58
2021/06/20 12:08:05;;;;;;;7.85;5.87;;;;;;;34.12;28.72;99696.82;1987080;87;33865;-70
2021/06/20 12:11:07;;;;;;;6.47;5.58;;;;;;;34.12;28.78;99703.77;1984654;89;28739;-59
2021/06/20 12:14:25;;;;;;;6.62;5.75;;;;;;;34.08;29.23;99699.79;2008963;87;27564;-59
2021/06/20 12:17:30;;;;;;;5.58;5.08;;;;;;;34.05;29.20;99691.94;2007786;87;28827;-58
2021/06/20 12:20:47;;;;;;;5.55;5.00;;;;;;;34.02;29.20;99697.45;1988135;87;31933;-60
2021/06/20 12:23:57;;;;;;;5.47;4.97;;;;;;;34.05;29.07;99691.94;1961763;90;33090;-69
2021/06/20 12:27:00;;;;;;;5.95;4.78;;;;;;;34.05;28.50;99690.55;1968740;89;29324;-59
2021/06/20 12:30:22;;;;;;;7.28;4.83;;;;;;;34.08;28.53;99698.41;1993295;87;27551;-61
2021/06/20 12:33:25;;;;;;;5.92;4.92;;;;;;;34.11;28.28;99687.33;1985391;87;29763;-60
2021/06/20 12:36:29;;;;;;;7.90;4.67;;;;;;;34.15;28.69;99694.94;1997131;87;31181;-58
2021/06/20 12:39:50;;;;;;;4.92;4.53;;;;;;;34.14;28.68;99691.86;2019612;87;33075;-60
2021/06/20 12:42:56;;;;;;;5.42;4.92;;;;;;;34.15;28.35;99693.55;1989824;89;29504;-60
2021/06/20 12:46:07;;;;;;;5.87;5.30;;;;;;;34.18;28.31;99685.25;1990086;87;27570;-62
2021/06/20 12:49:12;;;;;;;5.80;5.30;;;;;;;34.19;28.48;99684.16;2006868;87;28924;-61
2021/06/20 12:52:14;;;;;;;5.25;4.75;;;;;;;34.17;28.09;99680.78;1988017;87;31098;-60
2021/06/20 12:55:18;;;;;;;7.05;5.22;;;;;;;34.15;27.99;99677.41;2006797;87;33791;-60
2021/06/20 12:58:19;;;;;;;5.55;4.92;;;;;;;34.09;27.72;99677.85;2027152;87;29348;-59
2021/06/20 13:01:23;;;;;;;6.40;5.62;;;;;;;34.07;27.95;99677.25;2007918;87;27551;-61
2021/06/20 13:04:24;;;;;;;6.17;4.72;;;;;;;34.07;27.63;99680.89;1925708;92;29646;-61
2021/06/20 13:07:39;;;;;;;5.03;4.58;;;;;;;34.09;27.73;99678.69;1978660;89;31140;-60
2021/06/20 13:10:45;;;;;;;5.47;4.85;;;;;;;34.09;27.62;99678.69;1956512;90;33034;-60
2021/06/20 13:13:47;;;;;;;5.60;4.55;;;;;;;34.14;27.77;99678.50;1962046;89;30192;-60
2021/06/20 13:16:49;;;;;;;6.90;5.20;;;;;;;34.17;27.68;99673.83;2010017;87;27543;-58
2021/06/20 13:19:51;;;;;;;6.60;4.80;;;;;;;34.21;27.91;99678.64;1985338;89;28732;-58
2021/06/20 13:22:56;;;;;;;6.30;5.25;;;;;;;34.16;27.25;99677.17;2023466;87;31145;-60
2021/06/20 13:25:58;;;;;;;5.53;5.05;;;;;;;34.17;27.25;99675.22;1971975;88;33088;-61
2021/06/20 13:29:00;;;;;;;5.65;5.15;;;;;;;34.19;27.20;99676.66;1995016;89;29394;-59
2021/06/20 13:32:02;;;;;;;6.65;5.35;;;;;;;34.21;27.64;99670.30;1972208;89;27596;-59
2021/06/20 13:35:06;;;;;;;7.37;5.22;;;;;;;34.17;27.83;99662.16;1941493;90;28757;-59
2021/06/20 13:38:08;;;;;;;6.47;5.10;;;;;;;34.18;28.36;99658.84;2023696;87;31972;-60
2021/06/20 13:41:13;;;;;;;;;;;;;;;34.19;28.88;99653.02;2028904;87;29843;-61
2021/06/20 13:44:15;;;;;;;4.72;4.22;;;;;;;34.19;28.18;99644.68;2019944;87;29589;-61
2021/06/20 13:47:17;;;;;;;5.90;5.30;;;;;;;34.14;29.03;99643.74;2011443;87;27583;-59
2021/06/20 13:50:19;;;;;;;5.70;4.75;;;;;;;34.06;29.14;99647.23;1981995;88;28939;-60
2021/06/20 13:53:24;;;;;;;4.72;4.22;;;;;;;34.00;29.04;99648.78;1996414;89;31014;-58
2021/06/20 13:56:25;;;;;;;5.28;4.50;;;;;;;33.98;29.35;99646.23;1998467;89;32938;-60
2021/06/20 13:59:27;;;;;;;4.78;4.37;;;;;;;33.88;28.70;99648.22;1968781;89;29719;-60
2021/06/20 14:02:30;;;;;;;7.25;4.03;;;;;;;33.73;28.84;99643.22;1998614;88;27601;-60
2021/06/20 14:05:31;;;;;;;6.75;5.00;;;;;;;33.58;28.97;99640.95;1972923;89;28873;-60
2021/06/20 14:08:34;;;;;;;3.92;3.52;;;;;;;33.47;29.12;99644.60;1955316;90;31923;-59
2021/06/20 14:11:36;;;;;;;4.47;3.98;;;;;;;33.40;29.25;99643.34;1975215;89;33192;-60
2021/06/20 14:14:37;;;;;;;9.13;5.30;;;;;;;33.30;29.38;99636.13;1993145;89;29475;-67
2021/06/20 14:17:44;;;;;;;13.28;9.00;;;;;;;33.20;29.69;99633.13;1983141;89;27589;-62
2021/06/20 14:20:47;;;;;;;7.00;6.30;;;;;;;33.27;29.85;99632.44;1958250;89;28222;-63